Time,TemperatureF,DewpointF,PressureIn,WindDirection,WindDirectionDegrees,WindSpeedMPH,WindSpeedGustMPH,Humidity,HourlyPrecipIn,Conditions,Clouds,dailyrainin,SoftwareType,DateUTC
2013-05-21 00:02:00,60.0,55.2,29.62,WNW,293,0.0,5.3,84,0.00,,,0.00,WUHU216HW,2013-05-21 05:02:00,
2013-05-21 00:07:00,59.7,54.8,29.62,NNW,338,0.0,8.2,84,0.00,,,0.00,WUHU216HW,2013-05-21 05:07:00,
2013-05-21 00:12:00,59.7,54.5,29.62,WNW,293,6.0,8.2,83,0.00,,,0.00,WUHU216HW,2013-05-21 05:12:00,
2013-05-21 00:17:00,59.5,54.3,29.62,WNW,293,4.2,6.9,83,0.00,,,0.00,WUHU216HW,2013-05-21 05:17:00,
2013-05-21 00:22:00,59.3,53.8,29.63,NW,315,4.0,6.4,82,0.00,,,0.00,WUHU216HW,2013-05-21 05:22:00,
2013-05-21 00:27:00,59.1,53.7,29.63,WNW,293,4.2,7.8,82,0.00,,,0.00,WUHU216HW,2013-05-21 05:27:00,
2013-05-21 00:32:00,59.1,53.7,29.63,WNW,293,3.5,7.8,81,0.00,,,0.00,WUHU216HW,2013-05-21 05:32:00,
2013-05-21 00:37:00,59.0,53.2,29.63,WNW,293,6.9,6.9,81,0.00,,,0.00,WUHU216HW,2013-05-21 05:37:00,
2013-05-21 00:42:00,59.0,53.2,29.64,WNW,293,4.0,6.9,81,0.00,,,0.00,WUHU216HW,2013-05-21 05:42:00,
2013-05-21 00:47:00,59.0,53.2,29.64,WNW,293,0.0,6.9,81,0.00,,,0.00,WUHU216HW,2013-05-21 05:47:00,
2013-05-21 00:52:00,59.0,53.2,29.64,West,270,3.3,4.0,81,0.00,,,0.00,WUHU216HW,2013-05-21 05:52:00,
2013-05-21 00:57:00,59.0,53.2,29.64,WNW,293,0.8,3.3,82,0.00,,,0.00,WUHU216HW,2013-05-21 05:57:00,
2013-05-21 01:02:00,59.0,53.5,29.64,WNW,293,3.3,7.1,82,0.00,,,0.00,WUHU216HW,2013-05-21 06:02:00,
2013-05-21 01:07:00,59.0,53.5,29.64,WNW,293,0.0,7.1,82,0.00,,,0.00,WUHU216HW,2013-05-21 06:07:00,
2013-05-21 01:12:00,59.0,53.5,29.65,WNW,293,0.0,6.0,82,0.00,,,0.00,WUHU216HW,2013-05-21 06:12:00,
2013-05-21 01:17:00,58.8,53.0,29.64,West,270,5.3,6.0,81,0.00,,,0.00,WUHU216HW,2013-05-21 06:17:00,
2013-05-21 01:22:00,58.8,52.7,29.64,WNW,293,3.3,5.5,80,0.00,,,0.00,WUHU216HW,2013-05-21 06:22:00,
2013-05-21 01:27:00,58.8,52.7,29.65,WNW,293,2.2,7.1,80,0.00,,,0.00,WUHU216HW,2013-05-21 06:27:00,
2013-05-21 01:32:00,58.6,52.1,29.65,West,270,0.0,7.1,79,0.00,,,0.00,WUHU216HW,2013-05-21 06:32:00,
2013-05-21 01:37:00,58.6,52.1,29.64,WNW,293,5.8,5.8,79,0.00,,,0.00,WUHU216HW,2013-05-21 06:37:00,
2013-05-21 01:42:00,58.6,52.1,29.64,West,270,0.6,6.7,79,0.00,,,0.00,WUHU216HW,2013-05-21 06:42:00,
2013-05-21 01:47:00,58.6,52.1,29.64,West,270,3.3,7.6,79,0.00,,,0.00,WUHU216HW,2013-05-21 06:47:00,
2013-05-21 01:52:00,58.2,51.8,29.64,WNW,293,1.5,7.6,79,0.00,,,0.00,WUHU216HW,2013-05-21 06:52:00,
2013-05-21 01:57:00,58.2,51.8,29.64,West,270,0.4,7.1,79,0.00,,,0.00,WUHU216HW,2013-05-21 06:57:00,
2013-05-21 02:02:00,58.2,51.8,29.65,West,270,0.4,6.0,79,0.00,,,0.00,WUHU216HW,2013-05-21 07:02:00,
2013-05-21 02:07:00,57.9,51.4,29.64,WNW,293,2.9,3.1,79,0.00,,,0.00,WUHU216HW,2013-05-21 07:07:00,
2013-05-21 02:12:00,57.7,51.2,29.65,WNW,293,2.9,6.9,79,0.00,,,0.00,WUHU216HW,2013-05-21 07:12:00,
2013-05-21 02:17:00,57.7,51.2,29.64,West,270,6.4,7.8,79,0.00,,,0.00,WUHU216HW,2013-05-21 07:17:00,
2013-05-21 02:22:00,57.5,51.0,29.64,WNW,293,2.0,7.8,79,0.00,,,0.00,WUHU216HW,2013-05-21 07:22:00,
2013-05-21 02:27:00,57.5,51.0,29.65,WNW,293,2.6,5.8,79,0.00,,,0.00,WUHU216HW,2013-05-21 07:27:00,
2013-05-21 02:32:00,57.5,51.0,29.65,West,270,3.3,5.8,79,0.00,,,0.00,WUHU216HW,2013-05-21 07:32:00,
2013-05-21 02:37:00,57.5,51.0,29.65,WNW,293,2.6,7.1,79,0.00,,,0.00,WUHU216HW,2013-05-21 07:37:00,
2013-05-21 02:42:00,57.5,51.0,29.65,West,270,2.9,7.1,79,0.00,,,0.00,WUHU216HW,2013-05-21 07:42:00,
2013-05-21 02:47:00,57.5,51.0,29.65,NW,315,4.9,4.9,79,0.00,,,0.00,WUHU216HW,2013-05-21 07:47:00,
2013-05-21 02:52:00,57.5,51.0,29.65,WNW,293,4.4,4.9,79,0.00,,,0.00,WUHU216HW,2013-05-21 07:52:00,
2013-05-21 02:57:00,57.5,51.0,29.65,NW,315,4.4,8.9,79,0.00,,,0.00,WUHU216HW,2013-05-21 07:57:00,
2013-05-21 03:02:00,57.3,50.9,29.65,West,270,0.6,8.9,79,0.00,,,0.00,WUHU216HW,2013-05-21 08:02:00,
2013-05-21 03:07:00,57.3,50.9,29.64,WNW,293,7.3,7.3,79,0.00,,,0.00,WUHU216HW,2013-05-21 08:07:00,
2013-05-21 03:12:00,57.3,50.9,29.65,WNW,293,3.1,7.3,78,0.00,,,0.00,WUHU216HW,2013-05-21 08:12:00,
2013-05-21 03:17:00,57.3,50.9,29.65,West,270,1.3,9.1,78,0.00,,,0.00,WUHU216HW,2013-05-21 08:17:00,
2013-05-21 03:22:00,57.3,50.9,29.65,West,270,3.5,9.1,78,0.00,,,0.00,WUHU216HW,2013-05-21 08:22:00,
2013-05-21 03:27:00,57.3,50.9,29.65,WNW,293,2.6,3.5,78,0.00,,,0.00,WUHU216HW,2013-05-21 08:27:00,
2013-05-21 03:32:00,57.0,49.4,29.65,West,270,9.1,9.1,76,0.00,,,0.00,WUHU216HW,2013-05-21 08:32:00,
2013-05-21 03:37:00,56.8,49.2,29.65,WNW,293,3.1,9.1,76,0.00,,,0.00,WUHU216HW,2013-05-21 08:37:00,
2013-05-21 03:42:00,56.8,49.2,29.65,WNW,293,4.0,8.7,76,0.00,,,0.00,WUHU216HW,2013-05-21 08:42:00,
2013-05-21 03:47:00,56.6,49.1,29.65,NW,315,4.0,7.3,76,0.00,,,0.00,WUHU216HW,2013-05-21 08:47:00,
2013-05-21 03:52:00,56.4,48.9,29.65,West,270,1.7,5.3,76,0.00,,,0.00,WUHU216HW,2013-05-21 08:52:00,
2013-05-21 03:57:00,56.3,48.7,29.64,West,270,0.8,5.8,76,0.00,,,0.00,WUHU216HW,2013-05-21 08:57:00,
2013-05-21 04:02:00,56.1,48.6,29.64,West,270,0.4,5.8,76,0.00,,,0.00,WUHU216HW,2013-05-21 09:02:00,
2013-05-21 04:07:00,56.1,48.6,29.64,WNW,293,2.0,4.9,77,0.00,,,0.00,WUHU216HW,2013-05-21 09:07:00,
2013-05-21 04:12:00,55.9,49.1,29.64,WNW,293,4.4,4.4,78,0.00,,,0.00,WUHU216HW,2013-05-21 09:12:00,
2013-05-21 04:17:00,55.7,48.6,29.65,WNW,293,2.6,5.8,77,0.00,,,0.00,WUHU216HW,2013-05-21 09:17:00,
2013-05-21 04:22:00,55.7,49.2,29.65,WNW,293,1.3,5.8,79,0.00,,,0.00,WUHU216HW,2013-05-21 09:22:00,
2013-05-21 04:27:00,55.5,49.1,29.65,West,270,3.5,6.0,79,0.00,,,0.00,WUHU216HW,2013-05-21 09:27:00,
2013-05-21 04:32:00,55.4,48.9,29.65,WNW,293,0.0,6.0,79,0.00,,,0.00,WUHU216HW,2013-05-21 09:32:00,
2013-05-21 04:37:00,55.2,48.7,29.65,WNW,293,1.3,7.3,79,0.00,,,0.00,WUHU216HW,2013-05-21 09:37:00,
2013-05-21 04:42:00,55.0,48.6,29.65,WNW,293,4.9,7.3,79,0.00,,,0.00,WUHU216HW,2013-05-21 09:42:00,
2013-05-21 04:48:00,55.0,48.6,29.65,West,270,4.0,4.9,79,0.00,,,0.00,WUHU216HW,2013-05-21 09:48:00,
2013-05-21 04:53:00,55.0,48.2,29.65,WNW,293,5.8,5.8,78,0.00,,,0.00,WUHU216HW,2013-05-21 09:53:00,
2013-05-21 04:58:00,55.0,47.9,29.65,West,270,5.8,10.2,77,0.00,,,0.00,WUHU216HW,2013-05-21 09:58:00,
2013-05-21 05:03:00,55.0,47.9,29.64,WNW,293,4.2,10.2,77,0.00,,,0.00,WUHU216HW,2013-05-21 10:03:00,
2013-05-21 05:08:00,55.0,47.9,29.64,West,270,4.6,5.8,77,0.00,,,0.00,WUHU216HW,2013-05-21 10:08:00,
2013-05-21 05:13:00,55.0,47.9,29.64,West,270,4.6,5.1,77,0.00,,,0.00,WUHU216HW,2013-05-21 10:13:00,
2013-05-21 05:18:00,55.0,47.9,29.64,WNW,293,5.1,5.1,77,0.00,,,0.00,WUHU216HW,2013-05-21 10:18:00,
2013-05-21 05:23:00,55.0,47.5,29.65,WNW,293,6.2,9.1,76,0.00,,,0.00,WUHU216HW,2013-05-21 10:23:00,
2013-05-21 05:28:00,55.0,47.5,29.65,West,270,0.0,9.1,76,0.00,,,0.00,WUHU216HW,2013-05-21 10:28:00,
2013-05-21 05:33:00,55.0,47.5,29.66,NW,315,6.7,9.6,76,0.00,,,0.00,WUHU216HW,2013-05-21 10:33:00,
2013-05-21 05:38:00,55.2,47.7,29.66,WNW,293,5.8,9.6,76,0.00,,,0.00,WUHU216HW,2013-05-21 10:38:00,
2013-05-21 05:43:00,55.2,47.4,29.66,WNW,293,2.6,8.7,75,0.00,,,0.00,WUHU216HW,2013-05-21 10:43:00,
2013-05-21 05:48:00,55.2,47.4,29.66,WNW,293,4.9,8.7,75,0.00,,,0.00,WUHU216HW,2013-05-21 10:48:00,
2013-05-21 05:53:00,55.2,47.4,29.67,West,270,1.3,4.9,75,0.00,,,0.00,WUHU216HW,2013-05-21 10:53:00,
2013-05-21 05:58:00,55.2,47.4,29.67,WNW,293,6.2,7.8,75,0.00,,,0.00,WUHU216HW,2013-05-21 10:58:00,
2013-05-21 06:03:00,55.0,47.2,29.67,NW,315,7.3,8.0,75,0.00,,,0.00,WUHU216HW,2013-05-21 11:03:00,
2013-05-21 06:08:00,55.2,47.4,29.67,West,270,4.0,8.0,75,0.00,,,0.00,WUHU216HW,2013-05-21 11:08:00,
2013-05-21 06:13:00,55.0,47.2,29.66,WNW,293,3.3,7.8,75,0.00,,,0.00,WUHU216HW,2013-05-21 11:13:00,
2013-05-21 06:18:00,55.0,47.2,29.67,West,270,3.8,6.9,75,0.00,,,0.00,WUHU216HW,2013-05-21 11:18:00,
2013-05-21 06:23:00,55.0,47.2,29.67,West,270,4.6,8.7,75,0.00,,,0.00,WUHU216HW,2013-05-21 11:23:00,
2013-05-21 06:28:00,55.0,47.2,29.67,West,270,3.1,8.7,75,0.00,,,0.00,WUHU216HW,2013-05-21 11:28:00,
2013-05-21 06:33:00,55.0,47.2,29.67,WNW,293,4.4,8.7,75,0.00,,,0.00,WUHU216HW,2013-05-21 11:33:00,
2013-05-21 06:38:00,55.0,47.2,29.67,West,270,0.0,6.2,75,0.00,,,0.00,WUHU216HW,2013-05-21 11:38:00,
2013-05-21 06:43:00,55.0,47.2,29.67,WNW,293,3.3,5.5,75,0.00,,,0.00,WUHU216HW,2013-05-21 11:43:00,
2013-05-21 06:48:00,55.0,47.2,29.67,West,270,3.8,5.5,75,0.00,,,0.00,WUHU216HW,2013-05-21 11:48:00,
2013-05-21 06:53:00,55.0,47.2,29.67,WNW,293,7.8,7.8,75,0.00,,,0.00,WUHU216HW,2013-05-21 11:53:00,
2013-05-21 06:58:00,55.0,47.2,29.67,WNW,293,5.1,7.8,75,0.00,,,0.00,WUHU216HW,2013-05-21 11:58:00,
2013-05-21 07:03:00,55.0,47.2,29.67,West,270,3.8,7.1,75,0.00,,,0.00,WUHU216HW,2013-05-21 12:03:00,
2013-05-21 07:08:00,55.0,47.2,29.67,WNW,293,3.5,9.8,75,0.00,,,0.00,WUHU216HW,2013-05-21 12:08:00,
2013-05-21 07:13:00,55.0,47.2,29.67,WNW,293,2.4,9.8,75,0.00,,,0.00,WUHU216HW,2013-05-21 12:13:00,
2013-05-21 07:18:00,55.0,47.2,29.68,West,270,6.7,8.2,75,0.00,,,0.00,WUHU216HW,2013-05-21 12:18:00,
2013-05-21 07:23:00,55.2,47.4,29.68,West,270,4.2,8.9,75,0.00,,,0.00,WUHU216HW,2013-05-21 12:23:00,
2013-05-21 07:28:00,55.2,47.4,29.68,WNW,293,6.4,8.9,75,0.00,,,0.00,WUHU216HW,2013-05-21 12:28:00,
2013-05-21 07:33:00,55.2,47.0,29.68,WNW,293,7.1,8.5,74,0.00,,,0.00,WUHU216HW,2013-05-21 12:33:00,
2013-05-21 07:38:00,55.5,47.3,29.69,WNW,293,5.3,8.5,74,0.00,,,0.00,WUHU216HW,2013-05-21 12:38:00,
2013-05-21 07:43:00,55.5,47.3,29.68,West,270,3.8,8.9,74,0.00,,,0.00,WUHU216HW,2013-05-21 12:43:00,
2013-05-21 07:48:00,55.5,47.3,29.69,West,270,0.8,8.9,74,0.00,,,0.00,WUHU216HW,2013-05-21 12:48:00,
2013-05-21 07:53:00,55.7,47.5,29.69,NNW,338,2.2,7.6,74,0.00,,,0.00,WUHU216HW,2013-05-21 12:53:00,
2013-05-21 07:58:00,55.9,47.7,29.69,West,270,3.3,7.6,74,0.00,,,0.00,WUHU216HW,2013-05-21 12:58:00,
2013-05-21 08:03:00,56.1,47.9,29.70,West,270,0.0,3.3,74,0.00,,,0.00,WUHU216HW,2013-05-21 13:03:00,
2013-05-21 08:08:00,56.3,47.7,29.70,WNW,293,8.2,8.2,73,0.00,,,0.00,WUHU216HW,2013-05-21 13:08:00,
2013-05-21 08:13:00,56.4,47.5,29.70,WNW,293,3.5,9.1,72,0.00,,,0.00,WUHU216HW,2013-05-21 13:13:00,
2013-05-21 08:18:00,56.4,47.5,29.69,NW,315,1.7,9.1,72,0.00,,,0.00,WUHU216HW,2013-05-21 13:18:00,
2013-05-21 08:23:00,56.8,47.8,29.69,West,270,7.1,7.1,72,0.00,,,0.00,WUHU216HW,2013-05-21 13:23:00,
2013-05-21 08:28:00,56.8,48.2,29.70,West,270,1.1,7.1,73,0.00,,,0.00,WUHU216HW,2013-05-21 13:28:00,
2013-05-21 08:33:00,56.8,48.2,29.70,West,270,3.3,7.3,73,0.00,,,0.00,WUHU216HW,2013-05-21 13:33:00,
2013-05-21 08:38:00,56.8,47.5,29.70,WNW,293,8.5,8.5,71,0.00,,,0.00,WUHU216HW,2013-05-21 13:38:00,
2013-05-21 08:43:00,56.8,47.5,29.70,WSW,248,3.8,8.5,71,0.00,,,0.00,WUHU216HW,2013-05-21 13:43:00,
2013-05-21 08:48:00,56.8,47.5,29.70,West,270,6.2,8.5,71,0.00,,,0.00,WUHU216HW,2013-05-21 13:48:00,
2013-05-21 08:53:00,57.0,47.3,29.70,NNW,338,6.9,9.6,70,0.00,,,0.00,WUHU216HW,2013-05-21 13:53:00,
2013-05-21 08:58:00,57.0,47.3,29.70,NNW,338,8.2,9.6,70,0.00,,,0.00,WUHU216HW,2013-05-21 13:58:00,
2013-05-21 09:03:00,57.2,47.4,29.70,WNW,293,7.3,9.6,70,0.00,,,0.00,WUHU216HW,2013-05-21 14:03:00,
2013-05-21 09:08:00,57.2,47.0,29.70,WNW,293,6.7,9.6,69,0.00,,,0.00,WUHU216HW,2013-05-21 14:08:00,
2013-05-21 09:13:00,57.2,46.6,29.70,WNW,293,6.4,9.6,68,0.00,,,0.00,WUHU216HW,2013-05-21 14:13:00,
2013-05-21 09:18:00,57.3,46.8,29.70,WNW,293,9.1,9.6,68,0.00,,,0.00,WUHU216HW,2013-05-21 14:18:00,
2013-05-21 09:23:00,57.7,47.6,29.70,NNW,338,3.1,9.1,69,0.00,,,0.00,WUHU216HW,2013-05-21 14:23:00,
2013-05-21 09:28:00,57.7,46.4,29.70,WNW,293,6.7,8.0,66,0.00,,,0.00,WUHU216HW,2013-05-21 14:28:00,
2013-05-21 09:33:00,57.9,46.5,29.70,WNW,293,9.3,11.6,66,0.00,,,0.00,WUHU216HW,2013-05-21 14:33:00,
2013-05-21 09:38:00,58.2,47.3,29.70,West,270,4.0,11.6,67,0.00,,,0.00,WUHU216HW,2013-05-21 14:38:00,
2013-05-21 09:43:00,58.8,47.4,29.69,WNW,293,7.8,9.6,66,0.00,,,0.00,WUHU216HW,2013-05-21 14:43:00,
2013-05-21 09:48:00,59.0,47.2,29.69,SW,225,9.3,9.3,65,0.00,,,0.00,WUHU216HW,2013-05-21 14:48:00,
2013-05-21 09:53:00,59.0,46.7,29.69,WNW,293,8.2,9.3,64,0.00,,,0.00,WUHU216HW,2013-05-21 14:53:00,
2013-05-21 09:58:00,58.6,47.2,29.69,West,270,3.5,9.3,66,0.00,,,0.00,WUHU216HW,2013-05-21 14:58:00,
2013-05-21 10:03:00,58.2,47.3,29.70,WSW,248,9.3,9.3,67,0.00,,,0.00,WUHU216HW,2013-05-21 15:03:00,
2013-05-21 10:08:00,57.7,46.4,29.70,WNW,293,8.5,9.3,66,0.00,,,0.00,WUHU216HW,2013-05-21 15:08:00,
2013-05-21 10:13:00,57.5,46.2,29.69,WNW,293,9.6,9.6,66,0.00,,,0.00,WUHU216HW,2013-05-21 15:13:00,
2013-05-21 10:18:00,57.7,46.8,29.69,West,270,7.1,9.6,67,0.00,,,0.00,WUHU216HW,2013-05-21 15:18:00,
2013-05-21 10:23:00,58.2,46.1,29.69,West,270,8.0,10.7,64,0.00,,,0.00,WUHU216HW,2013-05-21 15:23:00,
2013-05-21 10:28:00,59.0,47.2,29.69,WSW,248,8.2,10.7,65,0.00,,,0.00,WUHU216HW,2013-05-21 15:28:00,
2013-05-21 10:33:00,59.0,46.7,29.69,WNW,293,7.1,10.7,64,0.00,,,0.00,WUHU216HW,2013-05-21 15:33:00,
2013-05-21 10:38:00,58.8,47.0,29.69,WNW,293,7.1,10.7,65,0.00,,,0.00,WUHU216HW,2013-05-21 15:38:00,
2013-05-21 10:43:00,58.4,45.8,29.69,WNW,293,9.8,10.5,63,0.00,,,0.00,WUHU216HW,2013-05-21 15:43:00,
2013-05-21 10:48:00,58.6,46.4,29.69,WNW,293,8.5,10.5,64,0.00,,,0.00,WUHU216HW,2013-05-21 15:48:00,
2013-05-21 10:53:00,59.0,46.3,29.69,WNW,293,9.1,10.9,63,0.00,,,0.00,WUHU216HW,2013-05-21 15:53:00,
2013-05-21 10:58:00,58.2,45.3,29.70,WNW,293,8.2,10.9,62,0.00,,,0.00,WUHU216HW,2013-05-21 15:58:00,
2013-05-21 11:03:00,58.2,45.7,29.70,NNW,338,7.3,9.8,63,0.00,,,0.00,WUHU216HW,2013-05-21 16:03:00,
2013-05-21 11:08:00,58.6,46.0,29.69,West,270,5.1,8.7,63,0.00,,,0.00,WUHU216HW,2013-05-21 16:08:00,
2013-05-21 11:13:00,59.0,47.2,29.69,West,270,4.0,8.0,65,0.00,,,0.00,WUHU216HW,2013-05-21 16:13:00,
2013-05-21 11:18:00,59.1,46.5,29.69,West,270,6.9,9.8,63,0.00,,,0.00,WUHU216HW,2013-05-21 16:18:00,
2013-05-21 11:23:00,59.1,46.5,29.68,NW,315,8.0,9.8,63,0.00,,,0.00,WUHU216HW,2013-05-21 16:23:00,
2013-05-21 11:28:00,59.3,46.7,29.69,West,270,6.7,9.3,63,0.00,,,0.00,WUHU216HW,2013-05-21 16:28:00,
2013-05-21 11:33:00,59.3,46.3,29.69,West,270,9.1,10.2,62,0.00,,,0.00,WUHU216HW,2013-05-21 16:33:00,
2013-05-21 11:38:00,59.5,47.3,29.69,WNW,293,4.4,10.2,64,0.00,,,0.00,WUHU216HW,2013-05-21 16:38:00,
2013-05-21 11:43:00,59.5,46.0,29.68,NW,315,5.8,10.0,61,0.00,,,0.00,WUHU216HW,2013-05-21 16:43:00,
2013-05-21 11:48:00,59.9,46.4,29.68,West,270,4.2,10.0,61,0.00,,,0.00,WUHU216HW,2013-05-21 16:48:00,
2013-05-21 11:53:00,60.0,47.0,29.69,WNW,293,3.8,9.3,62,0.00,,,0.00,WUHU216HW,2013-05-21 16:53:00,
2013-05-21 11:58:00,60.0,47.0,29.69,WNW,293,1.1,9.6,62,0.00,,,0.00,WUHU216HW,2013-05-21 16:58:00,
2013-05-21 12:03:00,60.4,46.9,29.68,NW,315,8.7,12.3,60,0.00,,,0.00,WUHU216HW,2013-05-21 17:03:00,
2013-05-21 12:08:00,60.4,46.9,29.68,SW,225,6.2,12.3,61,0.00,,,0.00,WUHU216HW,2013-05-21 17:08:00,
2013-05-21 12:13:00,60.2,46.8,29.69,WNW,293,4.6,10.0,61,0.00,,,0.00,WUHU216HW,2013-05-21 17:13:00,
2013-05-21 12:18:00,60.4,47.4,29.68,WNW,293,8.9,10.0,62,0.00,,,0.00,WUHU216HW,2013-05-21 17:18:00,
2013-05-21 12:23:00,60.8,46.4,29.68,WSW,248,9.1,10.0,59,0.00,,,0.00,WUHU216HW,2013-05-21 17:23:00,
2013-05-21 12:28:00,61.1,47.6,29.68,North,0,8.0,9.6,61,0.00,,,0.00,WUHU216HW,2013-05-21 17:28:00,
2013-05-21 12:33:00,61.7,47.2,29.68,WNW,293,9.8,9.8,59,0.00,,,0.00,WUHU216HW,2013-05-21 17:33:00,
2013-05-21 12:38:00,62.4,47.9,29.67,WNW,293,10.2,10.7,59,0.00,,,0.00,WUHU216HW,2013-05-21 17:38:00,
2013-05-21 12:43:00,62.4,47.9,29.68,West,270,6.2,10.7,59,0.00,,,0.00,WUHU216HW,2013-05-21 17:43:00,
2013-05-21 12:48:00,62.7,48.7,29.69,WNW,293,5.1,9.6,60,0.00,,,0.00,WUHU216HW,2013-05-21 17:48:00,
2013-05-21 12:53:00,62.7,48.2,29.68,West,270,7.6,9.3,59,0.00,,,0.00,WUHU216HW,2013-05-21 17:53:00,
2013-05-21 12:58:00,62.4,47.4,29.69,WNW,293,5.5,10.2,58,0.00,,,0.00,WUHU216HW,2013-05-21 17:58:00,
2013-05-21 13:03:00,62.2,47.7,29.69,WNW,293,6.2,10.2,59,0.00,,,0.00,WUHU216HW,2013-05-21 18:03:00,
2013-05-21 13:08:00,61.8,47.9,29.69,West,270,7.6,10.5,60,0.00,,,0.00,WUHU216HW,2013-05-21 18:08:00,
2013-05-21 13:13:00,61.8,47.4,29.69,WNW,293,7.3,10.5,59,0.00,,,0.00,WUHU216HW,2013-05-21 18:13:00,
2013-05-21 13:18:00,61.8,47.9,29.69,NW,315,5.8,8.2,60,0.00,,,0.00,WUHU216HW,2013-05-21 18:18:00,
2013-05-21 13:23:00,61.3,47.4,29.70,WNW,293,5.1,8.2,60,0.00,,,0.00,WUHU216HW,2013-05-21 18:23:00,
2013-05-21 13:28:00,61.3,47.8,29.70,WNW,293,2.0,8.2,61,0.00,,,0.00,WUHU216HW,2013-05-21 18:28:00,
2013-05-21 13:33:00,61.1,47.6,29.70,NNW,338,5.3,7.8,61,0.00,,,0.00,WUHU216HW,2013-05-21 18:33:00,
2013-05-21 13:38:00,61.1,47.6,29.70,WNW,293,6.9,9.3,61,0.00,,,0.00,WUHU216HW,2013-05-21 18:38:00,
2013-05-21 13:43:00,60.6,48.0,29.71,West,270,6.9,9.3,63,0.00,,,0.00,WUHU216HW,2013-05-21 18:43:00,
2013-05-21 13:48:00,59.9,47.6,29.70,West,270,3.1,8.0,64,0.00,,,0.00,WUHU216HW,2013-05-21 18:48:00,
2013-05-21 13:53:00,59.7,47.5,29.70,WSW,248,5.8,8.0,64,0.00,,,0.00,WUHU216HW,2013-05-21 18:53:00,
2013-05-21 13:58:00,59.7,47.9,29.71,West,270,3.1,8.0,65,0.00,,,0.00,WUHU216HW,2013-05-21 18:58:00,
2013-05-21 14:03:00,59.5,47.3,29.71,West,270,8.2,8.2,64,0.00,,,0.00,WUHU216HW,2013-05-21 19:03:00,
2013-05-21 14:08:00,59.3,47.1,29.70,WNW,293,4.2,10.0,64,0.00,,,0.00,WUHU216HW,2013-05-21 19:08:00,
2013-05-21 14:13:00,59.3,47.5,29.70,WNW,293,5.5,10.0,65,0.00,,,0.00,WUHU216HW,2013-05-21 19:13:00,
2013-05-21 14:18:00,59.7,47.9,29.71,West,270,4.2,9.6,65,0.00,,,0.00,WUHU216HW,2013-05-21 19:18:00,
2013-05-21 14:23:00,59.7,47.9,29.72,WNW,293,5.5,8.9,65,0.00,,,0.00,WUHU216HW,2013-05-21 19:23:00,
2013-05-21 14:28:00,59.7,47.9,29.72,West,270,2.0,6.0,65,0.00,,,0.00,WUHU216HW,2013-05-21 19:28:00,
2013-05-21 14:33:00,59.7,49.1,29.72,WNW,293,1.7,9.3,68,0.00,,,0.00,WUHU216HW,2013-05-21 19:33:00,
2013-05-21 14:38:00,59.1,48.6,29.72,West,270,0.6,9.3,69,0.00,,,0.00,WUHU216HW,2013-05-21 19:38:00,
2013-05-21 14:43:00,59.0,48.8,29.72,West,270,1.3,7.8,69,0.00,,,0.00,WUHU216HW,2013-05-21 19:43:00,
2013-05-21 14:48:00,59.0,48.4,29.71,SW,225,4.2,6.7,68,0.00,,,0.00,WUHU216HW,2013-05-21 19:48:00,
2013-05-21 14:53:00,59.3,48.4,29.71,West,270,5.5,10.7,67,0.00,,,0.00,WUHU216HW,2013-05-21 19:53:00,
2013-05-21 14:58:00,59.7,48.3,29.71,SW,225,3.3,10.7,66,0.00,,,0.00,WUHU216HW,2013-05-21 19:58:00,
2013-05-21 15:03:00,60.0,48.7,29.70,WNW,293,2.9,8.2,66,0.00,,,0.00,WUHU216HW,2013-05-21 20:03:00,
2013-05-21 15:08:00,60.4,49.0,29.70,West,270,3.3,7.6,66,0.00,,,0.00,WUHU216HW,2013-05-21 20:08:00,
2013-05-21 15:13:00,60.6,49.2,29.70,WNW,293,0.4,7.1,66,0.00,,,0.00,WUHU216HW,2013-05-21 20:13:00,
2013-05-21 15:18:00,61.1,49.3,29.70,West,270,6.7,6.7,65,0.00,,,0.00,WUHU216HW,2013-05-21 20:18:00,
2013-05-21 15:23:00,61.3,49.9,29.70,West,270,3.5,7.6,66,0.00,,,0.00,WUHU216HW,2013-05-21 20:23:00,
2013-05-21 15:28:00,61.5,50.0,29.70,West,270,8.7,9.8,66,0.00,,,0.00,WUHU216HW,2013-05-21 20:28:00,
2013-05-21 15:33:00,61.5,50.0,29.70,NW,315,7.1,9.8,66,0.00,,,0.00,WUHU216HW,2013-05-21 20:33:00,
2013-05-21 15:38:00,61.7,50.2,29.70,West,270,6.4,8.9,66,0.00,,,0.00,WUHU216HW,2013-05-21 20:38:00,
2013-05-21 15:43:00,61.5,50.0,29.69,WNW,293,8.2,8.9,66,0.00,,,0.00,WUHU216HW,2013-05-21 20:43:00,
2013-05-21 15:48:00,61.3,50.3,29.69,West,270,5.8,8.2,67,0.00,,,0.00,WUHU216HW,2013-05-21 20:48:00,
2013-05-21 15:53:00,61.3,50.3,29.69,WNW,293,6.7,8.7,67,0.00,,,0.00,WUHU216HW,2013-05-21 20:53:00,
2013-05-21 15:58:00,61.3,50.3,29.70,WNW,293,5.3,9.3,67,0.00,,,0.00,WUHU216HW,2013-05-21 20:58:00,
2013-05-21 16:03:00,61.1,50.9,29.70,West,270,4.6,9.3,69,0.00,,,0.00,WUHU216HW,2013-05-21 21:03:00,
2013-05-21 16:08:00,61.3,51.1,29.70,WNW,293,6.0,9.8,69,0.00,,,0.00,WUHU216HW,2013-05-21 21:08:00,
2013-05-21 16:13:00,61.5,50.9,29.70,WNW,293,5.8,9.8,68,0.00,,,0.00,WUHU216HW,2013-05-21 21:13:00,
2013-05-21 16:18:00,61.5,50.9,29.70,WNW,293,5.8,7.8,68,0.00,,,0.00,WUHU216HW,2013-05-21 21:18:00,
2013-05-21 16:23:00,61.5,51.3,29.70,NNW,338,7.8,8.5,69,0.00,,,0.00,WUHU216HW,2013-05-21 21:23:00,
2013-05-21 16:28:00,61.8,52.0,29.70,NW,315,6.2,9.6,70,0.00,,,0.00,WUHU216HW,2013-05-21 21:28:00,
2013-05-21 16:33:00,62.2,51.9,29.70,NW,315,5.1,9.6,69,0.00,,,0.00,WUHU216HW,2013-05-21 21:33:00,
2013-05-21 16:38:00,62.2,51.9,29.70,West,270,5.1,7.8,69,0.00,,,0.00,WUHU216HW,2013-05-21 21:38:00,
2013-05-21 16:43:00,61.8,51.6,29.70,West,270,6.0,8.7,69,0.00,,,0.00,WUHU216HW,2013-05-21 21:43:00,
2013-05-21 16:48:00,61.7,51.8,29.70,WNW,293,6.2,8.7,70,0.00,,,0.00,WUHU216HW,2013-05-21 21:48:00,
2013-05-21 16:53:00,61.7,51.8,29.70,WNW,293,7.1,7.8,70,0.00,,,0.00,WUHU216HW,2013-05-21 21:53:00,
2013-05-21 16:58:00,61.3,51.5,29.69,WNW,293,3.8,9.1,70,0.00,,,0.00,WUHU216HW,2013-05-21 21:58:00,
2013-05-21 17:03:00,61.3,51.5,29.70,WNW,293,6.0,9.1,70,0.00,,,0.00,WUHU216HW,2013-05-21 22:03:00,
2013-05-21 17:08:00,60.9,51.6,29.70,WNW,293,11.1,11.6,71,0.00,,,0.00,WUHU216HW,2013-05-21 22:08:00,
2013-05-21 17:13:00,60.4,51.0,29.70,WNW,293,6.0,11.6,71,0.00,,,0.00,WUHU216HW,2013-05-21 22:13:00,
2013-05-21 17:18:00,60.2,51.2,29.70,WNW,293,5.8,11.1,72,0.00,,,0.00,WUHU216HW,2013-05-21 22:18:00,
2013-05-21 17:23:00,60.2,51.2,29.70,WNW,293,6.9,7.1,72,0.00,,,0.00,WUHU216HW,2013-05-21 22:23:00,
2013-05-21 17:28:00,60.4,52.1,29.70,WNW,293,6.2,7.8,74,0.00,,,0.00,WUHU216HW,2013-05-21 22:28:00,
2013-05-21 17:33:00,60.4,52.5,29.70,NNW,338,2.2,8.2,75,0.00,,,0.00,WUHU216HW,2013-05-21 22:33:00,
2013-05-21 17:38:00,60.4,52.1,29.70,West,270,6.9,8.2,74,0.00,,,0.00,WUHU216HW,2013-05-21 22:38:00,
2013-05-21 17:43:00,60.4,52.1,29.70,WNW,293,2.9,7.6,74,0.00,,,0.00,WUHU216HW,2013-05-21 22:43:00,
2013-05-21 17:48:00,60.6,51.6,29.71,NNW,338,6.7,9.1,72,0.00,,,0.00,WUHU216HW,2013-05-21 22:48:00,
2013-05-21 17:53:00,60.6,51.6,29.71,NW,315,7.3,9.1,72,0.00,,,0.00,WUHU216HW,2013-05-21 22:53:00,
2013-05-21 17:58:00,60.4,51.0,29.71,WNW,293,2.9,8.9,71,0.00,,,0.00,WUHU216HW,2013-05-21 22:58:00,
2013-05-21 18:03:00,60.4,51.4,29.71,West,270,6.9,8.9,72,0.00,,,0.00,WUHU216HW,2013-05-21 23:03:00,
2013-05-21 18:08:00,60.0,51.4,29.71,WNW,293,5.3,9.3,73,0.00,,,0.00,WUHU216HW,2013-05-21 23:08:00,
2013-05-21 18:13:00,59.7,51.0,29.71,NW,315,4.4,9.3,73,0.00,,,0.00,WUHU216HW,2013-05-21 23:13:00,
2013-05-21 18:18:00,59.7,51.0,29.71,WNW,293,4.2,8.0,73,0.00,,,0.00,WUHU216HW,2013-05-21 23:18:00,
2013-05-21 18:23:00,59.9,50.9,29.71,NW,315,6.7,6.7,72,0.00,,,0.00,WUHU216HW,2013-05-21 23:23:00,
2013-05-21 18:28:00,59.9,50.9,29.71,North,0,2.6,7.6,72,0.00,,,0.00,WUHU216HW,2013-05-21 23:28:00,
2013-05-21 18:33:00,60.0,51.0,29.71,NW,315,1.7,7.6,72,0.00,,,0.00,WUHU216HW,2013-05-21 23:33:00,
2013-05-21 18:38:00,60.0,51.0,29.71,West,270,8.5,8.7,72,0.00,,,0.00,WUHU216HW,2013-05-21 23:38:00,
2013-05-21 18:43:00,60.0,51.0,29.71,NW,315,6.2,8.9,72,0.00,,,0.00,WUHU216HW,2013-05-21 23:43:00,
2013-05-21 18:48:00,59.9,50.5,29.71,NW,315,5.5,11.1,71,0.00,,,0.00,WUHU216HW,2013-05-21 23:48:00,
2013-05-21 18:53:00,59.9,50.5,29.71,WNW,293,4.2,11.1,71,0.00,,,0.00,WUHU216HW,2013-05-21 23:53:00,
2013-05-21 18:58:00,59.7,50.0,29.71,WNW,293,7.1,9.1,70,0.00,,,0.00,WUHU216HW,2013-05-21 23:58:00,
2013-05-21 19:03:00,59.7,50.0,29.72,WNW,293,6.7,9.1,70,0.00,,,0.00,WUHU216HW,2013-05-22 00:03:00,
2013-05-21 19:08:00,59.7,50.3,29.72,WNW,293,6.0,9.1,71,0.00,,,0.00,WUHU216HW,2013-05-22 00:08:00,
2013-05-21 19:13:00,59.5,50.5,29.72,WNW,293,8.9,10.0,72,0.00,,,0.00,WUHU216HW,2013-05-22 00:13:00,
2013-05-21 19:18:00,59.1,50.1,29.72,WNW,293,6.4,10.0,72,0.00,,,0.00,WUHU216HW,2013-05-22 00:18:00,
2013-05-21 19:23:00,59.0,50.3,29.72,WNW,293,4.6,8.7,73,0.00,,,0.00,WUHU216HW,2013-05-22 00:23:00,
2013-05-21 19:28:00,59.0,50.3,29.72,WNW,293,8.2,10.2,73,0.00,,,0.00,WUHU216HW,2013-05-22 00:28:00,
2013-05-21 19:33:00,58.6,50.3,29.72,West,270,4.9,10.2,74,0.00,,,0.00,WUHU216HW,2013-05-22 00:33:00,
2013-05-21 19:38:00,58.6,50.7,29.72,WNW,293,7.6,10.5,75,0.00,,,0.00,WUHU216HW,2013-05-22 00:38:00,
2013-05-21 19:43:00,58.2,50.7,29.72,NW,315,7.3,10.9,76,0.00,,,0.00,WUHU216HW,2013-05-22 00:43:00,
2013-05-21 19:48:00,57.9,50.7,29.71,North,0,5.8,10.9,77,0.00,,,0.00,WUHU216HW,2013-05-22 00:48:00,
2013-05-21 19:53:00,57.5,50.7,29.71,North,0,6.7,9.8,78,0.00,,,0.00,WUHU216HW,2013-05-22 00:53:00,
2013-05-21 19:58:00,57.0,50.5,29.71,WNW,293,10.2,10.2,79,0.00,,,0.00,WUHU216HW,2013-05-22 00:58:00,
2013-05-21 20:03:00,56.8,50.7,29.71,WNW,293,8.2,10.2,80,0.00,,,0.00,WUHU216HW,2013-05-22 01:03:00,
2013-05-21 20:08:00,56.4,50.3,29.72,NNW,338,7.8,10.2,80,0.00,,,0.00,WUHU216HW,2013-05-22 01:08:00,
2013-05-21 20:13:00,56.1,50.3,29.72,West,270,7.1,10.2,81,0.00,,,0.00,WUHU216HW,2013-05-22 01:13:00,
2013-05-21 20:18:00,56.1,50.6,29.72,NNW,338,7.8,10.2,82,0.00,,,0.00,WUHU216HW,2013-05-22 01:18:00,
2013-05-21 20:23:00,55.9,50.7,29.72,NW,315,4.0,10.7,83,0.00,,,0.00,WUHU216HW,2013-05-22 01:23:00,
2013-05-21 20:28:00,55.7,50.6,29.72,WNW,293,3.5,10.7,83,0.00,,,0.00,WUHU216HW,2013-05-22 01:28:00,
2013-05-21 20:33:00,55.5,50.4,29.72,WNW,293,4.2,8.2,83,0.00,,,0.00,WUHU216HW,2013-05-22 01:33:00,
2013-05-21 20:38:00,55.5,50.4,29.72,NW,315,3.1,8.2,83,0.00,,,0.00,WUHU216HW,2013-05-22 01:38:00,
2013-05-21 20:43:00,55.2,50.0,29.72,NNW,338,5.3,8.0,83,0.00,,,0.00,WUHU216HW,2013-05-22 01:43:00,
2013-05-21 20:48:00,55.0,49.9,29.73,NW,315,8.0,8.0,83,0.00,,,0.00,WUHU216HW,2013-05-22 01:48:00,
2013-05-21 20:53:00,55.0,49.5,29.73,WNW,293,3.3,8.0,82,0.00,,,0.00,WUHU216HW,2013-05-22 01:53:00,
2013-05-21 20:58:00,55.0,49.5,29.73,WNW,293,3.3,7.3,82,0.00,,,0.00,WUHU216HW,2013-05-22 01:58:00,
2013-05-21 21:03:00,55.0,49.5,29.73,NW,315,1.7,6.4,82,0.00,,,0.00,WUHU216HW,2013-05-22 02:03:00,
2013-05-21 21:08:00,55.0,49.5,29.73,West,270,4.0,6.4,82,0.00,,,0.00,WUHU216HW,2013-05-22 02:08:00,
2013-05-21 21:13:00,54.8,49.1,29.73,NNW,338,3.8,6.0,81,0.00,,,0.00,WUHU216HW,2013-05-22 02:13:00,
2013-05-21 21:18:00,54.8,49.1,29.73,WNW,293,6.7,7.3,81,0.00,,,0.00,WUHU216HW,2013-05-22 02:18:00,
2013-05-21 21:23:00,54.8,49.1,29.73,NNW,338,2.9,8.2,81,0.00,,,0.00,WUHU216HW,2013-05-22 02:23:00,
2013-05-21 21:28:00,54.6,48.6,29.73,NW,315,4.2,8.2,80,0.00,,,0.00,WUHU216HW,2013-05-22 02:28:00,
2013-05-21 21:33:00,54.5,48.4,29.73,NW,315,4.0,7.1,80,0.00,,,0.00,WUHU216HW,2013-05-22 02:33:00,
2013-05-21 21:38:00,54.3,48.3,29.73,NNW,338,4.2,10.0,80,0.00,,,0.00,WUHU216HW,2013-05-22 02:38:00,
2013-05-21 21:43:00,54.1,48.1,29.73,WNW,293,4.0,10.0,80,0.00,,,0.00,WUHU216HW,2013-05-22 02:43:00,
2013-05-21 21:48:00,54.1,48.1,29.73,West,270,5.5,6.4,80,0.00,,,0.00,WUHU216HW,2013-05-22 02:48:00,
2013-05-21 21:53:00,53.9,47.9,29.73,North,0,2.2,6.2,80,0.00,,,0.00,WUHU216HW,2013-05-22 02:53:00,
2013-05-21 21:58:00,53.7,47.8,29.73,WNW,293,5.5,6.2,80,0.00,,,0.00,WUHU216HW,2013-05-22 02:58:00,
2013-05-21 22:03:00,53.6,47.6,29.73,NW,315,4.2,6.4,80,0.00,,,0.00,WUHU216HW,2013-05-22 03:03:00,
2013-05-21 22:08:00,53.4,47.4,29.72,WNW,293,4.2,6.4,80,0.00,,,0.00,WUHU216HW,2013-05-22 03:08:00,
2013-05-21 22:13:00,53.2,47.6,29.72,WNW,293,3.5,7.6,81,0.00,,,0.00,WUHU216HW,2013-05-22 03:13:00,
2013-05-21 22:18:00,53.2,47.6,29.72,WNW,293,3.5,7.6,81,0.00,,,0.00,WUHU216HW,2013-05-22 03:18:00,
2013-05-21 22:23:00,53.0,47.4,29.72,WNW,293,3.3,6.4,81,0.00,,,0.00,WUHU216HW,2013-05-22 03:23:00,
2013-05-21 22:28:00,52.8,47.5,29.72,WNW,293,1.3,6.4,82,0.00,,,0.00,WUHU216HW,2013-05-22 03:28:00,
2013-05-21 22:33:00,52.8,47.5,29.72,North,0,4.2,5.3,82,0.00,,,0.00,WUHU216HW,2013-05-22 03:33:00,
2013-05-21 22:38:00,52.7,47.3,29.73,NNW,338,4.2,5.3,82,0.00,,,0.00,WUHU216HW,2013-05-22 03:38:00,
2013-05-21 22:43:00,52.7,47.3,29.72,NW,315,3.3,7.1,82,0.00,,,0.00,WUHU216HW,2013-05-22 03:43:00,
2013-05-21 22:48:00,52.5,47.1,29.72,North,0,2.9,7.1,82,0.00,,,0.00,WUHU216HW,2013-05-22 03:48:00,
2013-05-21 22:53:00,52.5,47.1,29.72,WNW,293,2.9,6.4,82,0.00,,,0.00,WUHU216HW,2013-05-22 03:53:00,
2013-05-21 22:58:00,52.5,47.1,29.72,WNW,293,2.4,5.8,82,0.00,,,0.00,WUHU216HW,2013-05-22 03:58:00,
2013-05-21 23:03:00,52.3,47.0,29.72,WNW,293,3.8,4.2,82,0.00,,,0.00,WUHU216HW,2013-05-22 04:03:00,
2013-05-21 23:08:00,52.3,47.0,29.72,WNW,293,2.9,4.2,82,0.00,,,0.00,WUHU216HW,2013-05-22 04:08:00,
2013-05-21 23:13:00,52.3,47.0,29.72,NW,315,3.8,3.8,82,0.00,,,0.00,WUHU216HW,2013-05-22 04:13:00,
2013-05-21 23:18:00,52.3,47.3,29.72,WNW,293,3.3,6.9,83,0.00,,,0.00,WUHU216HW,2013-05-22 04:18:00,
2013-05-21 23:23:00,52.1,47.1,29.72,West,270,4.2,6.9,83,0.00,,,0.00,WUHU216HW,2013-05-22 04:23:00,
2013-05-21 23:28:00,52.1,47.1,29.73,WNW,293,0.6,6.7,83,0.00,,,0.00,WUHU216HW,2013-05-22 04:28:00,
2013-05-21 23:33:00,52.1,47.1,29.73,WNW,293,3.3,4.0,83,0.00,,,0.00,WUHU216HW,2013-05-22 04:33:00,
2013-05-21 23:38:00,52.1,47.1,29.73,NNW,338,0.0,3.3,83,0.00,,,0.00,WUHU216HW,2013-05-22 04:38:00,
2013-05-21 23:43:00,52.1,47.1,29.74,WNW,293,0.0,3.3,83,0.00,,,0.00,WUHU216HW,2013-05-22 04:43:00,
2013-05-21 23:48:00,52.1,47.1,29.74,WNW,293,1.7,1.7,83,0.00,,,0.00,WUHU216HW,2013-05-22 04:48:00,
2013-05-21 23:53:00,52.1,47.1,29.74,WNW,293,3.5,3.5,83,0.00,,,0.00,WUHU216HW,2013-05-22 04:53:00,
2013-05-21 23:58:00,52.3,47.3,29.75,NNW,338,0.0,3.5,83,0.00,,,0.00,WUHU216HW,2013-05-22 04:58:00,